Indiahoma, Oklahoma
Current Conditions -  °F | °C
As of 5:53 PM on Sunday 23 Nov 2014 (Local Time) from KLAW Reporting Station
Overcast Overcast  
Wind Chill: 50°   Ceiling: 4800
Heat Index: 50°   Visibility: 10mi
Dew Point: 39°   Wind: 22mph
Humidity: 66%   Direction: 330°NNW
Pressure: 29.66"   Gusts: 32mph
Location:  34.62°N, 98.75°W
Report Text: KLAW 232353Z 33019G28KT 10SM SCT035 OVC048 10/04 A2966 RMK AO2 PK WND 34033/2303 PRESRR SLP042 T01000039 10189 20100 51080
Loading
Personal Weather Stations






























Interactive Weather Map New forecast layout! Learn more

10-Day Weather Forecast

Advertisements
Track Severe Weather on mobile